createdAt,value
2019-05-06T00:00:01.858Z,47.80
2019-05-06T00:02:34.168Z,47.70
2019-05-06T00:05:07.028Z,47.90
2019-05-06T00:07:39.316Z,48.00
2019-05-06T00:10:26.343Z,47.80
2019-05-06T00:12:58.807Z,47.90
2019-05-06T00:15:31.001Z,47.90
2019-05-06T00:18:04.489Z,47.90
2019-05-06T00:20:37.413Z,47.90
2019-05-06T00:23:15.101Z,47.90
2019-05-06T00:26:06.577Z,48.00
2019-05-06T00:28:44.734Z,47.90
2019-05-06T00:31:18.909Z,47.80
2019-05-06T00:33:53.834Z,47.90
2019-05-06T00:36:25.933Z,48.00
2019-05-06T00:39:01.684Z,47.60
2019-05-06T00:41:36.474Z,48.00
2019-05-06T00:44:06.716Z,48.10
2019-05-06T00:46:37.965Z,47.90
2019-05-06T00:49:10.325Z,48.00
2019-05-06T00:51:45.894Z,47.90
2019-05-06T00:54:21.600Z,47.80
2019-05-06T00:56:54.338Z,47.90
2019-05-06T00:59:26.871Z,47.60
2019-05-06T01:01:58.873Z,47.90
2019-05-06T01:04:30.910Z,47.70
2019-05-06T01:07:03.908Z,47.70
2019-05-06T01:09:36.913Z,47.90
2019-05-06T01:12:10.542Z,47.60
2019-05-06T01:14:47.649Z,47.90
2019-05-06T01:22:26.098Z,46.90
2019-05-06T01:24:58.293Z,47.70
2019-05-06T01:27:30.608Z,47.60
2019-05-06T01:30:04.380Z,48.00
2019-05-06T01:32:37.318Z,47.20
2019-05-06T01:35:09.873Z,48.50
2019-05-06T01:37:44.293Z,47.60
2019-05-06T01:40:38.508Z,47.70
2019-05-06T01:43:18.324Z,47.60
2019-05-06T01:45:50.873Z,47.50
2019-05-06T01:48:41.833Z,47.60
2019-05-06T01:51:14.353Z,47.50
2019-05-06T01:53:47.101Z,47.70
2019-05-06T01:56:19.847Z,47.50
2019-05-06T01:58:53.596Z,47.70
2019-05-06T02:01:25.202Z,47.70
2019-05-06T02:03:57.848Z,46.80
2019-05-06T02:06:29.884Z,47.20
2019-05-06T02:09:01.872Z,47.70
2019-05-06T02:11:34.094Z,47.70
2019-05-06T02:14:06.837Z,47.60
2019-05-06T02:16:39.331Z,47.60
2019-05-06T02:19:11.875Z,47.40
2019-05-06T02:22:13.682Z,47.50
2019-05-06T02:24:49.701Z,47.20
2019-05-06T02:27:20.724Z,46.90
2019-05-06T02:29:57.296Z,47.00
2019-05-06T02:32:45.379Z,47.40
2019-05-06T02:35:26.606Z,47.30
2019-05-06T02:37:57.826Z,47.20
2019-05-06T02:40:33.203Z,47.20
2019-05-06T02:43:05.837Z,47.10
2019-05-06T02:45:37.866Z,47.30
2019-05-06T02:48:19.324Z,47.50
2019-05-06T02:51:09.601Z,47.30
2019-05-06T02:53:42.881Z,47.80
2019-05-06T02:56:15.848Z,46.70
2019-05-06T02:58:48.321Z,47.30
2019-05-06T03:01:23.398Z,47.70
2019-05-06T03:03:54.329Z,47.40
2019-05-06T03:06:26.923Z,47.20
2019-05-06T03:08:59.545Z,47.10
2019-05-06T03:11:33.183Z,47.30
2019-05-06T03:14:05.891Z,47.30
2019-05-06T03:16:37.850Z,47.30
2019-05-06T03:19:13.318Z,47.40
2019-05-06T03:22:07.353Z,47.30
2019-05-06T03:25:07.886Z,47.20
2019-05-06T03:27:39.865Z,47.30
2019-05-06T03:30:16.381Z,47.10
2019-05-06T03:33:20.360Z,47.50
2019-05-06T03:35:36.082Z,47.10
2019-05-06T03:37:54.876Z,47.30
2019-05-06T03:40:27.314Z,46.80
2019-05-06T03:43:02.504Z,47.40
2019-05-06T03:45:45.315Z,47.50
2019-05-06T03:48:23.959Z,47.30
2019-05-06T03:50:56.497Z,47.40
2019-05-06T03:53:33.398Z,47.10
2019-05-06T03:56:05.315Z,47.30
2019-05-06T03:58:39.315Z,47.50
2019-05-06T04:01:13.169Z,47.10
2019-05-06T04:03:51.555Z,47.50
2019-05-06T04:06:19.589Z,47.20
2019-05-06T04:08:53.006Z,47.10
2019-05-06T04:11:25.878Z,47.10
2019-05-06T04:13:57.849Z,47.50
2019-05-06T04:16:45.571Z,47.80
2019-05-06T04:19:36.584Z,47.60
2019-05-06T04:22:17.139Z,47.20
2019-05-06T04:25:07.397Z,47.10
2019-05-06T04:28:33.942Z,47.60
2019-05-06T04:31:04.306Z,47.50
2019-05-06T04:33:36.369Z,47.50
2019-05-06T04:36:08.060Z,47.80
2019-05-06T04:38:39.785Z,47.60
2019-05-06T04:41:13.668Z,47.60
2019-05-06T04:43:44.752Z,47.50
2019-05-06T04:46:16.883Z,47.60
2019-05-06T04:48:48.758Z,47.30
2019-05-06T04:51:19.576Z,47.50
2019-05-06T04:53:53.677Z,47.50
2019-05-06T04:56:25.339Z,47.10
2019-05-06T04:58:57.072Z,47.20
2019-05-06T05:01:29.136Z,47.30
2019-05-06T05:04:03.303Z,47.40
2019-05-06T05:06:34.293Z,47.50
2019-05-06T05:09:06.745Z,47.30
2019-05-06T05:12:02.746Z,47.20
2019-05-06T05:14:52.050Z,47.20
2019-05-06T05:17:52.574Z,47.50
2019-05-06T05:20:36.502Z,47.00
2019-05-06T05:22:57.803Z,47.50
2019-05-06T05:25:29.807Z,47.20
2019-05-06T05:28:02.199Z,47.00
2019-05-06T05:30:35.318Z,47.80
2019-05-06T05:33:07.812Z,47.10
2019-05-06T05:35:39.867Z,47.10
2019-05-06T05:38:13.095Z,47.30
2019-05-06T05:40:45.806Z,47.20
2019-05-06T05:43:42.301Z,47.50
2019-05-06T05:46:13.862Z,47.50
2019-05-06T05:49:14.046Z,47.20
2019-05-06T05:51:46.049Z,47.20
2019-05-06T05:54:18.324Z,47.20
2019-05-06T05:56:52.746Z,46.70
2019-05-06T05:59:24.879Z,46.90
2019-05-06T06:01:56.927Z,46.70
2019-05-06T06:04:29.375Z,46.70
2019-05-06T06:07:02.742Z,46.70
2019-05-06T06:09:41.912Z,46.80
2019-05-06T06:12:15.155Z,46.50
2019-05-06T06:14:56.318Z,46.30
2019-05-06T06:23:14.325Z,45.50
2019-05-06T06:25:46.807Z,46.30
2019-05-06T06:28:18.826Z,46.30
2019-05-06T06:31:03.448Z,45.70
2019-05-06T06:33:35.868Z,45.60
2019-05-06T06:36:24.113Z,45.30
2019-05-06T06:39:22.883Z,45.60
2019-05-06T06:41:54.870Z,45.50
2019-05-06T06:44:29.539Z,45.30
2019-05-06T06:47:02.177Z,45.10
2019-05-06T06:49:34.676Z,45.30
2019-05-06T06:52:11.110Z,45.30
2019-05-06T06:54:43.611Z,45.20
2019-05-06T06:57:33.916Z,44.30
2019-05-06T07:00:22.294Z,44.70
2019-05-06T07:03:21.746Z,44.70
2019-05-06T07:06:07.541Z,44.60
2019-05-06T07:08:39.828Z,45.10
2019-05-06T07:11:13.050Z,44.20
2019-05-06T07:13:55.889Z,44.30
2019-05-06T07:16:27.818Z,44.40
2019-05-06T07:19:02.969Z,44.80
2019-05-06T07:21:56.567Z,44.80
2019-05-06T07:24:29.100Z,45.00
2019-05-06T07:27:07.290Z,44.50
2019-05-06T07:29:47.734Z,45.10
2019-05-06T07:32:14.321Z,44.70
2019-05-06T07:34:46.911Z,44.70
2019-05-06T07:37:18.859Z,45.00
2019-05-06T07:39:52.865Z,44.90
2019-05-06T07:42:32.178Z,44.70
2019-05-06T07:45:17.542Z,44.50
2019-05-06T07:47:53.393Z,44.70
2019-05-06T07:50:25.829Z,44.50
2019-05-06T07:53:10.658Z,44.90
2019-05-06T07:55:42.804Z,45.10
2019-05-06T07:58:15.030Z,45.00
2019-05-06T08:00:47.330Z,45.10
2019-05-06T08:03:22.113Z,44.80
2019-05-06T08:05:58.389Z,44.60
2019-05-06T08:08:27.864Z,44.40
2019-05-06T08:10:59.898Z,44.50
2019-05-06T08:13:32.422Z,44.70
2019-05-06T08:16:04.964Z,44.70
2019-05-06T08:18:39.283Z,44.60
2019-05-06T08:21:22.366Z,44.60
2019-05-06T08:23:54.901Z,44.90
2019-05-06T08:26:27.313Z,44.50
2019-05-06T08:28:59.859Z,44.50
2019-05-06T08:31:32.785Z,44.50
2019-05-06T08:34:05.040Z,44.90
2019-05-06T08:36:54.685Z,44.10
2019-05-06T08:39:25.725Z,44.60
2019-05-06T08:41:57.919Z,44.90
2019-05-06T08:44:32.121Z,44.90
2019-05-06T08:47:04.346Z,44.50
2019-05-06T08:49:55.074Z,44.30
2019-05-06T08:52:32.520Z,44.60
2019-05-06T08:55:04.971Z,44.50
2019-05-06T08:57:36.919Z,44.80
2019-05-06T09:00:08.878Z,44.70
2019-05-06T09:02:42.519Z,45.00
2019-05-06T09:05:14.882Z,45.10
2019-05-06T09:07:47.755Z,44.60
2019-05-06T09:10:18.719Z,44.70
2019-05-06T09:12:52.499Z,44.80
2019-05-06T09:15:24.850Z,44.90
2019-05-06T09:17:56.849Z,45.00
2019-05-06T09:20:28.891Z,44.90
2019-05-06T09:23:04.530Z,44.80
2019-05-06T09:25:36.068Z,45.00
2019-05-06T09:28:17.097Z,44.50
2019-05-06T09:30:57.470Z,44.70
2019-05-06T09:33:35.669Z,44.50
2019-05-06T09:36:06.716Z,44.40
2019-05-06T09:38:37.726Z,44.10
2019-05-06T09:41:09.092Z,44.10
2019-05-06T09:43:43.315Z,44.10
2019-05-06T09:46:15.322Z,44.20
2019-05-06T09:49:12.819Z,43.90
2019-05-06T09:51:45.024Z,44.40
2019-05-06T09:54:42.807Z,44.40
2019-05-06T09:57:23.288Z,44.20
2019-05-06T09:59:56.022Z,44.20
2019-05-06T10:02:28.095Z,44.60
2019-05-06T10:05:03.342Z,44.40
2019-05-06T10:07:35.001Z,44.20
2019-05-06T10:10:07.456Z,43.70
2019-05-06T10:12:41.951Z,44.30
2019-05-06T10:15:14.063Z,44.10
2019-05-06T10:17:47.687Z,43.70
2019-05-06T10:20:22.198Z,44.60
2019-05-06T10:22:53.891Z,44.30
2019-05-06T10:25:25.905Z,44.40
2019-05-06T10:28:02.603Z,44.80
2019-05-06T10:30:34.081Z,44.80
2019-05-06T10:33:09.548Z,44.80
2019-05-06T10:35:42.825Z,45.00
2019-05-06T10:38:52.842Z,44.50
2019-05-06T10:41:27.867Z,44.90
2019-05-06T10:44:36.308Z,45.10
2019-05-06T10:47:08.473Z,45.20
2019-05-06T10:49:42.109Z,45.20
2019-05-06T10:52:28.680Z,45.00
2019-05-06T10:55:03.318Z,45.00
2019-05-06T10:57:43.152Z,44.60
2019-05-06T11:00:15.322Z,45.50
2019-05-06T11:03:08.402Z,44.80
2019-05-06T11:05:42.934Z,44.60
2019-05-06T11:08:15.006Z,44.60
2019-05-06T11:10:46.988Z,44.20
2019-05-06T11:13:19.432Z,44.40
2019-05-06T11:15:52.871Z,44.40
2019-05-06T11:18:26.029Z,44.40
2019-05-06T11:20:58.312Z,44.20
2019-05-06T11:23:30.869Z,44.50
2019-05-06T11:26:03.176Z,44.60
2019-05-06T11:28:55.922Z,44.60
2019-05-06T11:31:46.461Z,44.50
2019-05-06T11:34:42.089Z,44.50
2019-05-06T11:37:23.513Z,44.50
2019-05-06T11:39:55.877Z,44.30
2019-05-06T11:42:32.506Z,44.20
2019-05-06T11:45:03.001Z,44.30
2019-05-06T11:47:35.293Z,44.40
2019-05-06T11:50:09.565Z,44.70
2019-05-06T11:52:43.454Z,44.40
2019-05-06T11:55:27.998Z,45.00
2019-05-06T11:57:47.947Z,43.80
2019-05-06T12:00:23.970Z,44.20
2019-05-06T12:02:56.331Z,44.60
2019-05-06T12:05:28.868Z,44.00
2019-05-06T12:08:08.223Z,44.00
2019-05-06T12:10:39.396Z,44.20
2019-05-06T12:13:12.226Z,43.70
2019-05-06T12:15:45.353Z,44.10
2019-05-06T12:18:17.886Z,44.20
2019-05-06T12:20:52.586Z,44.20
2019-05-06T12:23:23.928Z,44.00
2019-05-06T12:25:56.291Z,43.50
2019-05-06T12:28:28.833Z,44.00
2019-05-06T12:31:01.332Z,44.00
2019-05-06T12:33:44.339Z,43.90
2019-05-06T12:36:24.845Z,44.00
2019-05-06T12:39:17.546Z,44.10
2019-05-06T12:42:07.797Z,44.20
2019-05-06T12:44:41.854Z,44.10
2019-05-06T12:47:48.569Z,44.20
2019-05-06T12:50:22.716Z,44.30
2019-05-06T12:52:57.747Z,44.30
2019-05-06T12:55:28.827Z,43.90
2019-05-06T12:58:02.931Z,43.50
2019-05-06T13:00:35.292Z,43.80
2019-05-06T13:03:07.804Z,43.90
2019-05-06T13:05:39.815Z,43.80
2019-05-06T13:08:18.974Z,44.00
2019-05-06T13:10:45.905Z,43.90
2019-05-06T13:13:18.155Z,44.00
2019-05-06T13:15:52.776Z,44.00
2019-05-06T13:18:25.041Z,44.20
2019-05-06T13:20:57.874Z,43.30
2019-05-06T13:23:48.801Z,44.00
2019-05-06T13:26:23.867Z,43.80
2019-05-06T13:28:59.706Z,44.10
2019-05-06T13:31:32.600Z,44.30
2019-05-06T13:34:23.647Z,44.40
2019-05-06T13:36:55.875Z,44.60
2019-05-06T13:39:27.978Z,44.40
2019-05-06T13:42:00.477Z,44.50
2019-05-06T13:44:32.838Z,44.50
2019-05-06T13:47:05.347Z,44.60
2019-05-06T13:50:02.926Z,44.50
2019-05-06T13:52:42.405Z,44.60
2019-05-06T13:55:14.853Z,44.70
2019-05-06T13:57:46.860Z,44.80
2019-05-06T14:00:22.557Z,44.80
2019-05-06T14:02:57.683Z,45.00
2019-05-06T14:05:28.768Z,44.30
2019-05-06T14:08:04.220Z,45.10
2019-05-06T14:10:35.037Z,44.50
2019-05-06T14:13:08.325Z,43.60
2019-05-06T14:15:42.104Z,43.30
2019-05-06T14:18:14.855Z,42.80
2019-05-06T14:20:47.314Z,42.20
2019-05-06T14:23:22.045Z,42.20
2019-05-06T14:26:12.938Z,40.90
2019-05-06T14:28:55.332Z,40.50
2019-05-06T14:31:32.518Z,40.50
2019-05-06T14:34:04.468Z,40.20
2019-05-06T14:36:36.844Z,40.10
2019-05-06T14:39:17.069Z,40.50
2019-05-06T14:41:53.429Z,40.60
2019-05-06T14:44:25.824Z,40.70
2019-05-06T14:47:03.679Z,40.50
2019-05-06T14:49:34.726Z,41.00
2019-05-06T14:52:07.318Z,40.50
2019-05-06T14:54:54.346Z,40.70
2019-05-06T14:57:27.661Z,40.60
2019-05-06T14:59:59.926Z,40.00
2019-05-06T15:02:33.814Z,40.40
2019-05-06T15:05:06.275Z,40.60
2019-05-06T15:07:38.868Z,39.80
2019-05-06T15:10:20.451Z,40.60
2019-05-06T15:12:46.319Z,40.30
2019-05-06T15:15:18.898Z,40.30
2019-05-06T15:17:54.539Z,40.10
2019-05-06T15:25:33.097Z,40.10
2019-05-06T15:28:05.990Z,39.00
2019-05-06T15:30:55.332Z,40.40
2019-05-06T15:33:33.331Z,39.10
2019-05-06T15:36:16.376Z,39.30
2019-05-06T15:38:48.858Z,38.60
2019-05-06T15:41:22.301Z,38.70
2019-05-06T15:43:55.005Z,39.20
2019-05-06T15:46:27.905Z,39.10
2019-05-06T15:49:02.827Z,38.50
2019-05-06T15:51:38.288Z,40.90
2019-05-06T15:54:11.549Z,41.80
2019-05-06T15:56:44.022Z,42.00
2019-05-06T15:59:16.829Z,41.90
2019-05-06T16:01:49.341Z,42.30
2019-05-06T16:04:22.942Z,42.50
2019-05-06T16:06:55.473Z,42.70
2019-05-06T16:09:28.372Z,42.70
2019-05-06T16:12:02.973Z,42.90
2019-05-06T16:14:35.130Z,43.00
2019-05-06T16:17:08.369Z,43.20
2019-05-06T16:19:42.734Z,43.30
2019-05-06T16:22:14.978Z,43.20
2019-05-06T16:24:53.104Z,43.30
2019-05-06T16:27:25.874Z,43.60
2019-05-06T16:29:58.883Z,43.60
2019-05-06T16:32:33.180Z,43.60
2019-05-06T16:35:03.685Z,43.60
2019-05-06T16:37:37.446Z,43.30
2019-05-06T16:40:12.231Z,43.30
2019-05-06T16:42:46.067Z,43.90
2019-05-06T16:45:18.819Z,44.00
2019-05-06T16:47:52.388Z,43.60
2019-05-06T16:50:29.602Z,44.00
2019-05-06T16:53:02.730Z,44.00
2019-05-06T16:55:56.460Z,44.20
2019-05-06T16:58:32.371Z,44.30
2019-05-06T17:01:05.009Z,44.30
2019-05-06T17:03:55.777Z,44.30
2019-05-06T17:06:33.879Z,44.30
2019-05-06T17:09:18.347Z,44.00
2019-05-06T17:11:43.100Z,43.30
2019-05-06T17:14:15.865Z,44.40
2019-05-06T17:16:47.877Z,44.20
2019-05-06T17:19:20.328Z,43.90
2019-05-06T17:21:53.342Z,43.50
2019-05-06T17:24:25.864Z,43.20
2019-05-06T17:26:58.337Z,42.90
2019-05-06T17:29:53.348Z,42.80
2019-05-06T17:32:33.876Z,42.70
2019-05-06T17:35:06.898Z,42.50
2019-05-06T17:37:58.351Z,42.50
2019-05-06T17:40:32.701Z,43.10
2019-05-06T17:43:05.044Z,42.30
2019-05-06T17:45:58.326Z,41.60
2019-05-06T17:48:55.368Z,41.90
2019-05-06T17:51:33.808Z,41.40
2019-05-06T17:54:07.407Z,41.20
2019-05-06T17:56:41.789Z,40.90
2019-05-06T17:59:13.932Z,40.40
2019-05-06T18:01:49.331Z,39.20
2019-05-06T18:04:22.734Z,40.00
2019-05-06T18:06:55.829Z,39.80
2019-05-06T18:09:27.846Z,40.50
2019-05-06T18:12:00.907Z,41.70
2019-05-06T18:14:33.881Z,42.40
2019-05-06T18:17:05.898Z,42.20
2019-05-06T18:19:38.879Z,42.70
2019-05-06T18:22:12.975Z,42.90
2019-05-06T18:27:16.864Z,42.90
2019-05-06T18:29:48.867Z,43.30
2019-05-06T18:32:23.399Z,43.40
2019-05-06T18:34:55.807Z,43.40
2019-05-06T18:37:28.320Z,43.50
2019-05-06T18:40:01.335Z,43.60
2019-05-06T18:42:34.450Z,43.70
2019-05-06T18:45:08.809Z,43.70
2019-05-06T18:47:42.249Z,43.80
2019-05-06T18:50:14.904Z,43.80
2019-05-06T18:52:47.864Z,44.00
2019-05-06T18:55:22.304Z,44.00
2019-05-06T18:57:55.575Z,44.20
2019-05-06T19:00:28.323Z,44.30
2019-05-06T19:03:02.714Z,43.90
2019-05-06T19:05:39.444Z,44.30
2019-05-06T19:08:21.970Z,44.50
2019-05-06T19:10:54.882Z,44.50
2019-05-06T19:13:26.831Z,44.60
2019-05-06T19:15:59.100Z,44.70
2019-05-06T19:18:32.332Z,44.80
2019-05-06T19:21:05.124Z,44.80
2019-05-06T19:23:37.367Z,44.90
2019-05-06T19:26:12.213Z,45.10
2019-05-06T19:28:43.147Z,45.10
2019-05-06T19:31:18.089Z,45.10
2019-05-06T19:33:52.607Z,45.20
2019-05-06T19:36:24.880Z,45.20
2019-05-06T19:38:57.062Z,44.90
2019-05-06T19:41:29.363Z,45.30
2019-05-06T19:44:02.202Z,45.40
2019-05-06T19:46:34.879Z,45.40
2019-05-06T19:49:07.860Z,45.30
2019-05-06T19:51:39.840Z,45.50
2019-05-06T19:54:12.627Z,45.40
2019-05-06T19:56:44.888Z,45.50
2019-05-06T19:59:16.856Z,45.50
2019-05-06T20:01:49.330Z,45.60
2019-05-06T20:04:22.811Z,45.60
2019-05-06T20:07:06.718Z,45.60
2019-05-06T20:09:54.539Z,45.70
2019-05-06T20:12:40.396Z,45.30
2019-05-06T20:15:30.493Z,45.90
2019-05-06T20:18:03.152Z,45.80
2019-05-06T20:20:35.852Z,45.80
2019-05-06T20:23:08.098Z,45.90
2019-05-06T20:25:42.584Z,45.90
2019-05-06T20:28:14.183Z,45.80
2019-05-06T20:30:46.528Z,46.60
2019-05-06T20:33:18.826Z,46.00
2019-05-06T20:35:52.553Z,45.90
2019-05-06T20:38:25.333Z,45.90
2019-05-06T20:40:57.869Z,45.80
2019-05-06T20:43:32.308Z,45.90
2019-05-06T20:46:04.332Z,46.00
2019-05-06T20:48:36.935Z,46.00
2019-05-06T20:51:08.847Z,46.00
2019-05-06T20:53:42.983Z,46.10
2019-05-06T20:56:14.834Z,46.10
2019-05-06T20:58:46.829Z,45.70
2019-05-06T21:01:18.859Z,46.10
2019-05-06T21:03:52.725Z,46.20
2019-05-06T21:11:29.356Z,45.30
2019-05-06T21:14:02.315Z,46.10
2019-05-06T21:16:34.869Z,46.90
2019-05-06T21:19:06.837Z,46.20
2019-05-06T21:21:38.929Z,46.60
2019-05-06T21:24:12.921Z,45.80
2019-05-06T21:26:50.548Z,45.90
2019-05-06T21:29:24.816Z,45.60
2019-05-06T21:31:56.835Z,45.90
2019-05-06T21:34:29.003Z,45.90
2019-05-06T21:37:03.299Z,45.80
2019-05-06T21:39:35.913Z,45.90
2019-05-06T21:42:08.073Z,45.80
2019-05-06T21:44:42.825Z,45.70
2019-05-06T21:47:14.845Z,46.00
2019-05-06T21:49:47.043Z,46.00
2019-05-06T21:52:19.104Z,46.10
2019-05-06T21:54:52.540Z,45.90
2019-05-06T21:57:23.703Z,46.10
2019-05-06T21:59:54.697Z,46.30
2019-05-06T22:02:26.290Z,45.90
2019-05-06T22:05:02.663Z,45.90
2019-05-06T22:07:35.867Z,46.20
2019-05-06T22:10:08.884Z,46.30
2019-05-06T22:12:43.378Z,46.40
2019-05-06T22:15:15.323Z,46.40
2019-05-06T22:17:49.395Z,46.50
2019-05-06T22:20:23.736Z,46.40
2019-05-06T22:22:55.921Z,46.50
2019-05-06T22:25:28.337Z,46.30
2019-05-06T22:28:02.369Z,46.40
2019-05-06T22:30:34.862Z,46.70
2019-05-06T22:33:06.936Z,46.70
2019-05-06T22:35:38.928Z,46.70
2019-05-06T22:38:12.337Z,46.50
2019-05-06T22:40:45.033Z,46.70
2019-05-06T22:43:17.340Z,46.70
2019-05-06T22:45:49.851Z,46.90
2019-05-06T22:48:23.628Z,46.90
2019-05-06T22:50:55.888Z,46.60
2019-05-06T22:53:27.819Z,46.50
2019-05-06T22:56:02.653Z,46.80
2019-05-06T22:58:34.882Z,46.90
2019-05-06T23:01:13.043Z,47.00
2019-05-06T23:03:46.630Z,46.90
2019-05-06T23:06:19.185Z,47.00
2019-05-06T23:08:56.220Z,46.60
2019-05-06T23:11:28.834Z,47.00
2019-05-06T23:14:02.736Z,47.10
2019-05-06T23:16:35.022Z,47.10
2019-05-06T23:19:08.329Z,46.90
2019-05-06T23:21:43.098Z,46.80
2019-05-06T23:24:14.909Z,46.90
2019-05-06T23:26:46.891Z,46.80
2019-05-06T23:29:18.894Z,47.10
2019-05-06T23:31:52.107Z,47.00
2019-05-06T23:34:25.337Z,47.00
2019-05-06T23:37:23.827Z,47.50
2019-05-06T23:41:09.077Z,47.00
2019-05-06T23:44:54.759Z,47.20
2019-05-06T23:48:40.362Z,47.10
2019-05-06T23:52:25.882Z,47.30
2019-05-06T23:56:10.684Z,47.40
2019-05-06T23:58:43.503Z,47.20
